sensor_id;sensor_type;location;lat;lon;timestamp;P1;durP1;ratioP1;P2;durP2;ratioP2
22531;SDS011;11432;46.924;7.114;2022-08-03T00:01:26;3.15;;;1.42;;
22531;SDS011;11432;46.924;7.114;2022-08-03T00:03:52;4.20;;;1.75;;
22531;SDS011;11432;46.924;7.114;2022-08-03T00:06:17;2.00;;;1.45;;
22531;SDS011;11432;46.924;7.114;2022-08-03T00:08:43;4.03;;;1.63;;
22531;SDS011;11432;46.924;7.114;2022-08-03T00:11:09;2.83;;;1.65;;
22531;SDS011;11432;46.924;7.114;2022-08-03T00:13:34;2.75;;;1.67;;
22531;SDS011;11432;46.924;7.114;2022-08-03T00:16:00;5.15;;;1.77;;
22531;SDS011;11432;46.924;7.114;2022-08-03T00:18:26;4.88;;;1.75;;
22531;SDS011;11432;46.924;7.114;2022-08-03T00:20:52;4.72;;;1.73;;
22531;SDS011;11432;46.924;7.114;2022-08-03T00:23:17;6.50;;;1.70;;
22531;SDS011;11432;46.924;7.114;2022-08-03T00:25:43;2.42;;;1.73;;
22531;SDS011;11432;46.924;7.114;2022-08-03T00:28:09;2.22;;;1.63;;
22531;SDS011;11432;46.924;7.114;2022-08-03T00:30:34;3.88;;;1.80;;
22531;SDS011;11432;46.924;7.114;2022-08-03T00:33:00;3.15;;;1.77;;
22531;SDS011;11432;46.924;7.114;2022-08-03T00:35:27;3.58;;;1.80;;
22531;SDS011;11432;46.924;7.114;2022-08-03T00:37:52;5.40;;;1.67;;
22531;SDS011;11432;46.924;7.114;2022-08-03T00:40:19;3.97;;;1.65;;
22531;SDS011;11432;46.924;7.114;2022-08-03T00:42:49;3.00;;;1.80;;
22531;SDS011;11432;46.924;7.114;2022-08-03T00:45:17;2.70;;;1.58;;
22531;SDS011;11432;46.924;7.114;2022-08-03T00:47:50;3.20;;;1.50;;
22531;SDS011;11432;46.924;7.114;2022-08-03T00:50:17;4.80;;;1.70;;
22531;SDS011;11432;46.924;7.114;2022-08-03T00:52:43;2.10;;;1.75;;
22531;SDS011;11432;46.924;7.114;2022-08-03T00:55:09;3.25;;;1.50;;
22531;SDS011;11432;46.924;7.114;2022-08-03T00:57:35;3.13;;;1.70;;
22531;SDS011;11432;46.924;7.114;2022-08-03T01:00:03;2.72;;;1.60;;
22531;SDS011;11432;46.924;7.114;2022-08-03T01:02:32;6.22;;;1.90;;
22531;SDS011;11432;46.924;7.114;2022-08-03T01:04:58;3.70;;;1.95;;
22531;SDS011;11432;46.924;7.114;2022-08-03T01:10:26;5.45;;;1.80;;
22531;SDS011;11432;46.924;7.114;2022-08-03T01:13:26;3.47;;;1.70;;
22531;SDS011;11432;46.924;7.114;2022-08-03T01:16:01;3.47;;;1.60;;
22531;SDS011;11432;46.924;7.114;2022-08-03T01:18:40;2.70;;;1.88;;
22531;SDS011;11432;46.924;7.114;2022-08-03T01:21:23;3.15;;;1.63;;
22531;SDS011;11432;46.924;7.114;2022-08-03T01:23:55;2.60;;;1.60;;
22531;SDS011;11432;46.924;7.114;2022-08-03T01:26:47;3.53;;;1.80;;
22531;SDS011;11432;46.924;7.114;2022-08-03T01:32:45;2.85;;;1.60;;
22531;SDS011;11432;46.924;7.114;2022-08-03T01:35:14;4.20;;;2.15;;
22531;SDS011;11432;46.924;7.114;2022-08-03T01:37:49;2.72;;;1.83;;
22531;SDS011;11432;46.924;7.114;2022-08-03T01:40:21;6.03;;;2.22;;
22531;SDS011;11432;46.924;7.114;2022-08-03T01:42:51;3.63;;;1.80;;
22531;SDS011;11432;46.924;7.114;2022-08-03T01:45:19;4.18;;;1.98;;
22531;SDS011;11432;46.924;7.114;2022-08-03T01:47:46;3.35;;;2.30;;
22531;SDS011;11432;46.924;7.114;2022-08-03T01:50:13;2.67;;;2.00;;
22531;SDS011;11432;46.924;7.114;2022-08-03T01:52:43;2.92;;;1.85;;
22531;SDS011;11432;46.924;7.114;2022-08-03T01:55:10;2.90;;;1.63;;
22531;SDS011;11432;46.924;7.114;2022-08-03T01:57:37;2.65;;;1.70;;
22531;SDS011;11432;46.924;7.114;2022-08-03T02:00:07;4.28;;;1.88;;
22531;SDS011;11432;46.924;7.114;2022-08-03T02:02:33;5.93;;;2.03;;
22531;SDS011;11432;46.924;7.114;2022-08-03T02:05:02;3.20;;;1.73;;
22531;SDS011;11432;46.924;7.114;2022-08-03T02:07:30;3.00;;;2.03;;
22531;SDS011;11432;46.924;7.114;2022-08-03T02:09:56;4.28;;;1.90;;
22531;SDS011;11432;46.924;7.114;2022-08-03T02:12:24;3.55;;;2.13;;
22531;SDS011;11432;46.924;7.114;2022-08-03T02:14:52;3.13;;;2.03;;
22531;SDS011;11432;46.924;7.114;2022-08-03T02:17:20;5.35;;;2.00;;
22531;SDS011;11432;46.924;7.114;2022-08-03T02:19:46;3.50;;;1.70;;
22531;SDS011;11432;46.924;7.114;2022-08-03T02:22:14;3.67;;;1.98;;
22531;SDS011;11432;46.924;7.114;2022-08-03T02:24:41;2.45;;;1.77;;
22531;SDS011;11432;46.924;7.114;2022-08-03T02:27:09;3.75;;;1.83;;
22531;SDS011;11432;46.924;7.114;2022-08-03T02:29:43;2.03;;;1.73;;
22531;SDS011;11432;46.924;7.114;2022-08-03T02:34:41;2.63;;;1.83;;
22531;SDS011;11432;46.924;7.114;2022-08-03T02:37:11;3.88;;;2.03;;
22531;SDS011;11432;46.924;7.114;2022-08-03T02:39:38;3.97;;;1.92;;
22531;SDS011;11432;46.924;7.114;2022-08-03T02:42:07;4.65;;;2.25;;
22531;SDS011;11432;46.924;7.114;2022-08-03T02:44:35;2.88;;;2.15;;
22531;SDS011;11432;46.924;7.114;2022-08-03T02:47:04;2.80;;;2.20;;
22531;SDS011;11432;46.924;7.114;2022-08-03T02:49:33;3.08;;;2.30;;
22531;SDS011;11432;46.924;7.114;2022-08-03T02:52:00;2.97;;;1.98;;
22531;SDS011;11432;46.924;7.114;2022-08-03T02:54:28;3.45;;;2.22;;
22531;SDS011;11432;46.924;7.114;2022-08-03T02:56:56;4.88;;;2.03;;
22531;SDS011;11432;46.924;7.114;2022-08-03T02:59:22;5.65;;;2.50;;
22531;SDS011;11432;46.924;7.114;2022-08-03T03:01:50;2.88;;;2.03;;
22531;SDS011;11432;46.924;7.114;2022-08-03T03:04:17;3.40;;;2.20;;
22531;SDS011;11432;46.924;7.114;2022-08-03T03:06:44;3.28;;;2.35;;
22531;SDS011;11432;46.924;7.114;2022-08-03T03:09:10;4.30;;;2.28;;
22531;SDS011;11432;46.924;7.114;2022-08-03T03:11:37;6.72;;;2.40;;
22531;SDS011;11432;46.924;7.114;2022-08-03T03:14:03;3.72;;;2.50;;
22531;SDS011;11432;46.924;7.114;2022-08-03T03:16:29;3.17;;;2.30;;
22531;SDS011;11432;46.924;7.114;2022-08-03T03:18:56;4.30;;;2.13;;
22531;SDS011;11432;46.924;7.114;2022-08-03T03:21:23;5.47;;;2.10;;
22531;SDS011;11432;46.924;7.114;2022-08-03T03:23:50;3.83;;;2.03;;
22531;SDS011;11432;46.924;7.114;2022-08-03T03:26:17;4.03;;;2.42;;
22531;SDS011;11432;46.924;7.114;2022-08-03T03:28:43;3.42;;;2.40;;
22531;SDS011;11432;46.924;7.114;2022-08-03T03:31:09;4.72;;;2.30;;
22531;SDS011;11432;46.924;7.114;2022-08-03T03:33:35;7.32;;;2.05;;
22531;SDS011;11432;46.924;7.114;2022-08-03T03:36:02;2.75;;;2.08;;
22531;SDS011;11432;46.924;7.114;2022-08-03T03:38:29;3.55;;;2.33;;
22531;SDS011;11432;46.924;7.114;2022-08-03T03:40:55;3.58;;;2.38;;
22531;SDS011;11432;46.924;7.114;2022-08-03T03:43:22;5.82;;;2.20;;
22531;SDS011;11432;46.924;7.114;2022-08-03T03:45:48;5.53;;;2.97;;
22531;SDS011;11432;46.924;7.114;2022-08-03T03:48:15;7.22;;;2.10;;
22531;SDS011;11432;46.924;7.114;2022-08-03T03:50:42;4.50;;;2.50;;
22531;SDS011;11432;46.924;7.114;2022-08-03T03:53:09;5.40;;;2.25;;
22531;SDS011;11432;46.924;7.114;2022-08-03T03:55:36;3.35;;;2.00;;
22531;SDS011;11432;46.924;7.114;2022-08-03T03:58:02;5.32;;;2.40;;
22531;SDS011;11432;46.924;7.114;2022-08-03T04:00:28;4.45;;;2.10;;
22531;SDS011;11432;46.924;7.114;2022-08-03T04:02:54;3.50;;;2.40;;
22531;SDS011;11432;46.924;7.114;2022-08-03T04:05:20;4.88;;;2.17;;
22531;SDS011;11432;46.924;7.114;2022-08-03T04:08:08;2.65;;;2.05;;
22531;SDS011;11432;46.924;7.114;2022-08-03T04:16:02;3.90;;;1.90;;
22531;SDS011;11432;46.924;7.114;2022-08-03T04:18:29;5.45;;;2.35;;
22531;SDS011;11432;46.924;7.114;2022-08-03T04:20:58;4.25;;;2.20;;
22531;SDS011;11432;46.924;7.114;2022-08-03T04:23:29;6.32;;;2.38;;
22531;SDS011;11432;46.924;7.114;2022-08-03T04:25:57;5.03;;;2.50;;
22531;SDS011;11432;46.924;7.114;2022-08-03T04:28:25;4.07;;;2.20;;
22531;SDS011;11432;46.924;7.114;2022-08-03T04:30:52;3.30;;;2.30;;
22531;SDS011;11432;46.924;7.114;2022-08-03T04:33:19;3.17;;;2.20;;
22531;SDS011;11432;46.924;7.114;2022-08-03T04:35:47;4.70;;;2.78;;
22531;SDS011;11432;46.924;7.114;2022-08-03T04:38:14;3.60;;;2.40;;
22531;SDS011;11432;46.924;7.114;2022-08-03T04:40:43;6.82;;;2.30;;
22531;SDS011;11432;46.924;7.114;2022-08-03T04:43:11;3.30;;;2.17;;
22531;SDS011;11432;46.924;7.114;2022-08-03T04:45:38;3.05;;;2.47;;
22531;SDS011;11432;46.924;7.114;2022-08-03T04:48:05;5.32;;;2.53;;
22531;SDS011;11432;46.924;7.114;2022-08-03T04:50:31;4.43;;;2.13;;
22531;SDS011;11432;46.924;7.114;2022-08-03T04:52:58;6.13;;;2.17;;
22531;SDS011;11432;46.924;7.114;2022-08-03T04:55:27;3.60;;;2.45;;
22531;SDS011;11432;46.924;7.114;2022-08-03T04:57:54;4.85;;;2.20;;
22531;SDS011;11432;46.924;7.114;2022-08-03T05:00:20;3.05;;;2.20;;
22531;SDS011;11432;46.924;7.114;2022-08-03T05:02:46;4.68;;;2.33;;
22531;SDS011;11432;46.924;7.114;2022-08-03T05:05:12;3.00;;;2.38;;
22531;SDS011;11432;46.924;7.114;2022-08-03T05:07:39;4.38;;;2.22;;
22531;SDS011;11432;46.924;7.114;2022-08-03T05:10:06;3.20;;;2.25;;
22531;SDS011;11432;46.924;7.114;2022-08-03T05:12:33;4.20;;;2.72;;
22531;SDS011;11432;46.924;7.114;2022-08-03T05:14:59;4.05;;;3.00;;
22531;SDS011;11432;46.924;7.114;2022-08-03T05:17:25;4.88;;;2.50;;
22531;SDS011;11432;46.924;7.114;2022-08-03T05:19:52;4.40;;;2.53;;
22531;SDS011;11432;46.924;7.114;2022-08-03T05:22:18;3.78;;;2.40;;
22531;SDS011;11432;46.924;7.114;2022-08-03T05:24:45;4.57;;;2.72;;
22531;SDS011;11432;46.924;7.114;2022-08-03T05:27:10;4.38;;;2.33;;
22531;SDS011;11432;46.924;7.114;2022-08-03T05:29:41;3.47;;;2.67;;
22531;SDS011;11432;46.924;7.114;2022-08-03T05:32:07;3.60;;;2.47;;
22531;SDS011;11432;46.924;7.114;2022-08-03T05:34:33;4.78;;;2.60;;
22531;SDS011;11432;46.924;7.114;2022-08-03T05:36:59;4.78;;;2.78;;
22531;SDS011;11432;46.924;7.114;2022-08-03T05:39:24;3.90;;;2.75;;
22531;SDS011;11432;46.924;7.114;2022-08-03T05:41:50;4.40;;;2.70;;
22531;SDS011;11432;46.924;7.114;2022-08-03T05:44:15;5.03;;;2.70;;
22531;SDS011;11432;46.924;7.114;2022-08-03T05:46:41;4.32;;;2.88;;
22531;SDS011;11432;46.924;7.114;2022-08-03T05:49:07;3.25;;;2.50;;
22531;SDS011;11432;46.924;7.114;2022-08-03T05:51:32;5.13;;;2.97;;
22531;SDS011;11432;46.924;7.114;2022-08-03T05:53:58;4.35;;;2.63;;
22531;SDS011;11432;46.924;7.114;2022-08-03T05:56:23;5.75;;;2.70;;
22531;SDS011;11432;46.924;7.114;2022-08-03T05:58:49;6.05;;;2.95;;
22531;SDS011;11432;46.924;7.114;2022-08-03T06:01:16;4.78;;;3.00;;
22531;SDS011;11432;46.924;7.114;2022-08-03T06:03:42;4.20;;;2.92;;
22531;SDS011;11432;46.924;7.114;2022-08-03T06:06:09;4.07;;;2.97;;
22531;SDS011;11432;46.924;7.114;2022-08-03T06:08:35;5.90;;;3.15;;
22531;SDS011;11432;46.924;7.114;2022-08-03T06:11:01;5.38;;;2.72;;
22531;SDS011;11432;46.924;7.114;2022-08-03T06:13:27;6.90;;;2.90;;
22531;SDS011;11432;46.924;7.114;2022-08-03T06:15:53;3.50;;;2.47;;
22531;SDS011;11432;46.924;7.114;2022-08-03T06:18:19;5.93;;;2.67;;
22531;SDS011;11432;46.924;7.114;2022-08-03T06:20:45;6.32;;;2.78;;
22531;SDS011;11432;46.924;7.114;2022-08-03T06:23:10;7.85;;;3.13;;
22531;SDS011;11432;46.924;7.114;2022-08-03T06:25:36;6.07;;;2.97;;
22531;SDS011;11432;46.924;7.114;2022-08-03T06:28:01;3.45;;;2.58;;
22531;SDS011;11432;46.924;7.114;2022-08-03T06:30:29;4.82;;;2.60;;
22531;SDS011;11432;46.924;7.114;2022-08-03T06:32:54;4.35;;;2.83;;
22531;SDS011;11432;46.924;7.114;2022-08-03T06:35:20;5.68;;;2.45;;
22531;SDS011;11432;46.924;7.114;2022-08-03T06:37:47;3.78;;;2.58;;
22531;SDS011;11432;46.924;7.114;2022-08-03T06:40:15;5.38;;;3.00;;
22531;SDS011;11432;46.924;7.114;2022-08-03T06:42:43;5.05;;;2.80;;
22531;SDS011;11432;46.924;7.114;2022-08-03T06:45:09;7.63;;;2.35;;
22531;SDS011;11432;46.924;7.114;2022-08-03T06:47:35;6.38;;;3.17;;
22531;SDS011;11432;46.924;7.114;2022-08-03T06:50:02;7.38;;;2.70;;
22531;SDS011;11432;46.924;7.114;2022-08-03T06:52:29;5.53;;;3.05;;
22531;SDS011;11432;46.924;7.114;2022-08-03T06:54:55;4.93;;;2.92;;
22531;SDS011;11432;46.924;7.114;2022-08-03T06:57:21;6.75;;;2.67;;
22531;SDS011;11432;46.924;7.114;2022-08-03T06:59:46;8.35;;;3.13;;
22531;SDS011;11432;46.924;7.114;2022-08-03T07:02:12;9.10;;;3.50;;
22531;SDS011;11432;46.924;7.114;2022-08-03T07:04:38;4.75;;;2.88;;
22531;SDS011;11432;46.924;7.114;2022-08-03T07:07:04;6.50;;;3.28;;
22531;SDS011;11432;46.924;7.114;2022-08-03T07:09:29;4.20;;;3.33;;
22531;SDS011;11432;46.924;7.114;2022-08-03T07:11:55;5.05;;;2.75;;
22531;SDS011;11432;46.924;7.114;2022-08-03T07:14:21;4.75;;;3.28;;
22531;SDS011;11432;46.924;7.114;2022-08-03T07:16:47;7.07;;;2.90;;
22531;SDS011;11432;46.924;7.114;2022-08-03T07:19:13;5.63;;;2.70;;
22531;SDS011;11432;46.924;7.114;2022-08-03T07:21:38;5.75;;;3.00;;
22531;SDS011;11432;46.924;7.114;2022-08-03T07:24:04;6.15;;;3.17;;
22531;SDS011;11432;46.924;7.114;2022-08-03T07:26:30;8.60;;;3.03;;
22531;SDS011;11432;46.924;7.114;2022-08-03T07:28:55;5.05;;;3.00;;
22531;SDS011;11432;46.924;7.114;2022-08-03T07:31:21;9.35;;;2.95;;
22531;SDS011;11432;46.924;7.114;2022-08-03T07:33:47;10.07;;;3.50;;
22531;SDS011;11432;46.924;7.114;2022-08-03T07:36:12;5.53;;;3.38;;
22531;SDS011;11432;46.924;7.114;2022-08-03T07:38:38;5.65;;;3.83;;
22531;SDS011;11432;46.924;7.114;2022-08-03T07:41:03;5.13;;;3.15;;
22531;SDS011;11432;46.924;7.114;2022-08-03T07:43:29;6.88;;;3.33;;
22531;SDS011;11432;46.924;7.114;2022-08-03T07:45:55;7.18;;;3.30;;
22531;SDS011;11432;46.924;7.114;2022-08-03T07:48:20;6.50;;;3.10;;
22531;SDS011;11432;46.924;7.114;2022-08-03T07:50:46;8.48;;;3.78;;
22531;SDS011;11432;46.924;7.114;2022-08-03T07:53:12;6.43;;;3.17;;
22531;SDS011;11432;46.924;7.114;2022-08-03T07:55:38;8.68;;;3.60;;
22531;SDS011;11432;46.924;7.114;2022-08-03T07:58:04;8.13;;;3.47;;
22531;SDS011;11432;46.924;7.114;2022-08-03T08:00:34;4.88;;;3.42;;
22531;SDS011;11432;46.924;7.114;2022-08-03T08:03:00;7.80;;;3.35;;
22531;SDS011;11432;46.924;7.114;2022-08-03T08:05:26;6.78;;;3.50;;
22531;SDS011;11432;46.924;7.114;2022-08-03T08:07:53;3.65;;;2.60;;
22531;SDS011;11432;46.924;7.114;2022-08-03T08:10:19;6.88;;;3.13;;
22531;SDS011;11432;46.924;7.114;2022-08-03T08:12:45;8.07;;;3.20;;
22531;SDS011;11432;46.924;7.114;2022-08-03T08:15:11;5.75;;;2.88;;
22531;SDS011;11432;46.924;7.114;2022-08-03T08:17:55;4.72;;;2.83;;
22531;SDS011;11432;46.924;7.114;2022-08-03T08:20:24;5.00;;;2.92;;
22531;SDS011;11432;46.924;7.114;2022-08-03T08:22:51;7.35;;;3.47;;
22531;SDS011;11432;46.924;7.114;2022-08-03T08:25:17;7.50;;;3.60;;
22531;SDS011;11432;46.924;7.114;2022-08-03T08:27:43;6.20;;;3.20;;
22531;SDS011;11432;46.924;7.114;2022-08-03T08:30:12;3.78;;;2.63;;
22531;SDS011;11432;46.924;7.114;2022-08-03T08:32:39;6.15;;;3.03;;
22531;SDS011;11432;46.924;7.114;2022-08-03T08:35:05;5.72;;;2.90;;
22531;SDS011;11432;46.924;7.114;2022-08-03T08:37:32;7.10;;;3.35;;
22531;SDS011;11432;46.924;7.114;2022-08-03T08:39:58;6.68;;;2.92;;
22531;SDS011;11432;46.924;7.114;2022-08-03T08:42:24;5.53;;;2.97;;
22531;SDS011;11432;46.924;7.114;2022-08-03T08:44:50;4.97;;;3.10;;
22531;SDS011;11432;46.924;7.114;2022-08-03T08:47:17;4.50;;;2.47;;
22531;SDS011;11432;46.924;7.114;2022-08-03T08:49:45;4.90;;;2.67;;
22531;SDS011;11432;46.924;7.114;2022-08-03T08:52:12;4.85;;;3.13;;
22531;SDS011;11432;46.924;7.114;2022-08-03T08:54:39;3.90;;;2.78;;
22531;SDS011;11432;46.924;7.114;2022-08-03T08:57:06;3.38;;;2.42;;
22531;SDS011;11432;46.924;7.114;2022-08-03T08:59:33;5.82;;;3.05;;
22531;SDS011;11432;46.924;7.114;2022-08-03T09:01:59;5.03;;;2.97;;
22531;SDS011;11432;46.924;7.114;2022-08-03T09:04:24;5.75;;;3.15;;
22531;SDS011;11432;46.924;7.114;2022-08-03T09:06:52;4.82;;;3.38;;
22531;SDS011;11432;46.924;7.114;2022-08-03T09:09:18;6.30;;;3.50;;
22531;SDS011;11432;46.924;7.114;2022-08-03T09:11:43;4.57;;;3.50;;
22531;SDS011;11432;46.924;7.114;2022-08-03T09:14:09;3.20;;;2.72;;
22531;SDS011;11432;46.924;7.114;2022-08-03T09:16:35;3.70;;;3.13;;
22531;SDS011;11432;46.924;7.114;2022-08-03T09:19:11;4.53;;;3.30;;
22531;SDS011;11432;46.924;7.114;2022-08-03T09:21:38;4.75;;;3.53;;
22531;SDS011;11432;46.924;7.114;2022-08-03T09:24:05;5.20;;;3.00;;
22531;SDS011;11432;46.924;7.114;2022-08-03T09:26:32;6.10;;;3.15;;
22531;SDS011;11432;46.924;7.114;2022-08-03T09:29:03;7.18;;;3.22;;
22531;SDS011;11432;46.924;7.114;2022-08-03T09:31:37;5.10;;;2.97;;
22531;SDS011;11432;46.924;7.114;2022-08-03T09:34:09;3.20;;;2.60;;
22531;SDS011;11432;46.924;7.114;2022-08-03T09:36:38;3.95;;;2.65;;
22531;SDS011;11432;46.924;7.114;2022-08-03T09:39:05;5.25;;;2.90;;
22531;SDS011;11432;46.924;7.114;2022-08-03T09:41:36;4.35;;;2.78;;
22531;SDS011;11432;46.924;7.114;2022-08-03T09:44:02;3.13;;;2.08;;
22531;SDS011;11432;46.924;7.114;2022-08-03T09:46:28;7.78;;;2.72;;
22531;SDS011;11432;46.924;7.114;2022-08-03T09:49:11;4.00;;;2.45;;
22531;SDS011;11432;46.924;7.114;2022-08-03T09:51:37;4.45;;;2.53;;
22531;SDS011;11432;46.924;7.114;2022-08-03T09:54:04;3.55;;;2.30;;
22531;SDS011;11432;46.924;7.114;2022-08-03T09:56:37;3.42;;;2.60;;
22531;SDS011;11432;46.924;7.114;2022-08-03T09:59:04;4.75;;;2.80;;
22531;SDS011;11432;46.924;7.114;2022-08-03T10:01:33;4.30;;;2.80;;
22531;SDS011;11432;46.924;7.114;2022-08-03T10:04:00;5.95;;;2.50;;
22531;SDS011;11432;46.924;7.114;2022-08-03T10:06:25;3.78;;;2.35;;
22531;SDS011;11432;46.924;7.114;2022-08-03T10:09:05;3.50;;;2.58;;
22531;SDS011;11432;46.924;7.114;2022-08-03T10:11:38;4.10;;;2.65;;
22531;SDS011;11432;46.924;7.114;2022-08-03T10:14:05;4.78;;;2.45;;
22531;SDS011;11432;46.924;7.114;2022-08-03T10:16:33;3.72;;;2.70;;
22531;SDS011;11432;46.924;7.114;2022-08-03T10:19:04;2.92;;;1.75;;
22531;SDS011;11432;46.924;7.114;2022-08-03T10:21:32;5.45;;;2.20;;
22531;SDS011;11432;46.924;7.114;2022-08-03T10:24:01;2.80;;;2.20;;
22531;SDS011;11432;46.924;7.114;2022-08-03T10:26:30;3.58;;;2.22;;
22531;SDS011;11432;46.924;7.114;2022-08-03T10:29:01;2.90;;;2.00;;
22531;SDS011;11432;46.924;7.114;2022-08-03T10:31:30;4.68;;;2.00;;
22531;SDS011;11432;46.924;7.114;2022-08-03T10:34:02;2.58;;;1.95;;
22531;SDS011;11432;46.924;7.114;2022-08-03T10:36:32;4.18;;;2.10;;
22531;SDS011;11432;46.924;7.114;2022-08-03T10:39:00;4.40;;;1.75;;
22531;SDS011;11432;46.924;7.114;2022-08-03T10:41:29;3.60;;;2.40;;
22531;SDS011;11432;46.924;7.114;2022-08-03T10:44:07;4.45;;;1.80;;
22531;SDS011;11432;46.924;7.114;2022-08-03T10:46:35;2.80;;;1.83;;
22531;SDS011;11432;46.924;7.114;2022-08-03T10:49:03;3.22;;;1.83;;
22531;SDS011;11432;46.924;7.114;2022-08-03T10:51:30;3.55;;;2.30;;
22531;SDS011;11432;46.924;7.114;2022-08-03T10:53:59;4.10;;;1.90;;
22531;SDS011;11432;46.924;7.114;2022-08-03T10:59:15;3.30;;;2.15;;
22531;SDS011;11432;46.924;7.114;2022-08-03T11:01:48;5.30;;;2.20;;
22531;SDS011;11432;46.924;7.114;2022-08-03T11:06:43;2.80;;;2.00;;
22531;SDS011;11432;46.924;7.114;2022-08-03T11:11:45;5.03;;;2.33;;
22531;SDS011;11432;46.924;7.114;2022-08-03T11:14:18;3.60;;;2.22;;
22531;SDS011;11432;46.924;7.114;2022-08-03T11:19:42;3.42;;;1.90;;
22531;SDS011;11432;46.924;7.114;2022-08-03T11:22:10;3.92;;;2.20;;
22531;SDS011;11432;46.924;7.114;2022-08-03T11:35:09;2.40;;;1.70;;
22531;SDS011;11432;46.924;7.114;2022-08-03T11:37:35;3.92;;;2.10;;
22531;SDS011;11432;46.924;7.114;2022-08-03T11:46:06;6.63;;;2.13;;
22531;SDS011;11432;46.924;7.114;2022-08-03T11:48:37;3.38;;;2.10;;
22531;SDS011;11432;46.924;7.114;2022-08-03T11:51:17;3.33;;;1.95;;
22531;SDS011;11432;46.924;7.114;2022-08-03T11:53:43;5.60;;;2.03;;
22531;SDS011;11432;46.924;7.114;2022-08-03T11:56:11;3.05;;;1.80;;
22531;SDS011;11432;46.924;7.114;2022-08-03T11:58:44;2.38;;;2.00;;
22531;SDS011;11432;46.924;7.114;2022-08-03T12:01:11;2.58;;;2.25;;
22531;SDS011;11432;46.924;7.114;2022-08-03T12:03:37;4.13;;;2.30;;
22531;SDS011;11432;46.924;7.114;2022-08-03T12:06:03;3.95;;;2.25;;
22531;SDS011;11432;46.924;7.114;2022-08-03T12:08:34;3.17;;;2.13;;
22531;SDS011;11432;46.924;7.114;2022-08-03T12:11:00;2.83;;;1.85;;
22531;SDS011;11432;46.924;7.114;2022-08-03T12:16:05;4.40;;;2.00;;
22531;SDS011;11432;46.924;7.114;2022-08-03T12:18:31;4.03;;;2.38;;
22531;SDS011;11432;46.924;7.114;2022-08-03T12:21:09;3.63;;;2.15;;
22531;SDS011;11432;46.924;7.114;2022-08-03T12:23:36;4.47;;;2.25;;
22531;SDS011;11432;46.924;7.114;2022-08-03T12:26:03;4.57;;;2.20;;
22531;SDS011;11432;46.924;7.114;2022-08-03T12:28:31;6.07;;;1.85;;
22531;SDS011;11432;46.924;7.114;2022-08-03T12:31:02;4.22;;;2.30;;
22531;SDS011;11432;46.924;7.114;2022-08-03T12:33:30;2.92;;;1.77;;
22531;SDS011;11432;46.924;7.114;2022-08-03T12:36:04;5.13;;;2.25;;
22531;SDS011;11432;46.924;7.114;2022-08-03T12:38:32;7.18;;;2.25;;
22531;SDS011;11432;46.924;7.114;2022-08-03T12:41:00;3.10;;;1.95;;
22531;SDS011;11432;46.924;7.114;2022-08-03T12:43:27;2.20;;;2.00;;
22531;SDS011;11432;46.924;7.114;2022-08-03T12:46:06;4.72;;;2.00;;
22531;SDS011;11432;46.924;7.114;2022-08-03T12:48:56;2.67;;;1.77;;
22531;SDS011;11432;46.924;7.114;2022-08-03T12:56:22;2.25;;;1.67;;
22531;SDS011;11432;46.924;7.114;2022-08-03T12:58:48;2.78;;;1.80;;
22531;SDS011;11432;46.924;7.114;2022-08-03T13:01:17;3.05;;;2.20;;
22531;SDS011;11432;46.924;7.114;2022-08-03T13:03:44;2.22;;;1.60;;
22531;SDS011;11432;46.924;7.114;2022-08-03T13:06:16;2.58;;;1.85;;
22531;SDS011;11432;46.924;7.114;2022-08-03T13:08:43;3.55;;;1.67;;
22531;SDS011;11432;46.924;7.114;2022-08-03T13:13:46;4.47;;;1.95;;
22531;SDS011;11432;46.924;7.114;2022-08-03T13:16:12;3.40;;;1.67;;
22531;SDS011;11432;46.924;7.114;2022-08-03T13:18:38;2.53;;;1.73;;
22531;SDS011;11432;46.924;7.114;2022-08-03T13:21:04;5.57;;;2.38;;
22531;SDS011;11432;46.924;7.114;2022-08-03T13:23:29;4.05;;;1.98;;
22531;SDS011;11432;46.924;7.114;2022-08-03T13:25:55;4.32;;;1.95;;
22531;SDS011;11432;46.924;7.114;2022-08-03T13:28:20;2.50;;;1.83;;
22531;SDS011;11432;46.924;7.114;2022-08-03T13:30:46;2.70;;;1.65;;
22531;SDS011;11432;46.924;7.114;2022-08-03T13:33:12;4.38;;;1.75;;
22531;SDS011;11432;46.924;7.114;2022-08-03T13:35:37;3.00;;;1.88;;
22531;SDS011;11432;46.924;7.114;2022-08-03T13:38:03;4.50;;;1.88;;
22531;SDS011;11432;46.924;7.114;2022-08-03T13:40:28;2.65;;;1.60;;
22531;SDS011;11432;46.924;7.114;2022-08-03T13:42:55;2.58;;;1.70;;
22531;SDS011;11432;46.924;7.114;2022-08-03T13:45:21;1.90;;;1.45;;
22531;SDS011;11432;46.924;7.114;2022-08-03T13:47:48;5.65;;;1.67;;
22531;SDS011;11432;46.924;7.114;2022-08-03T13:50:14;3.53;;;1.40;;
22531;SDS011;11432;46.924;7.114;2022-08-03T13:52:40;3.13;;;1.30;;
22531;SDS011;11432;46.924;7.114;2022-08-03T13:55:06;2.03;;;1.50;;
22531;SDS011;11432;46.924;7.114;2022-08-03T13:57:32;3.90;;;1.50;;
22531;SDS011;11432;46.924;7.114;2022-08-03T13:59:59;2.08;;;1.48;;
22531;SDS011;11432;46.924;7.114;2022-08-03T14:02:25;1.77;;;1.40;;
22531;SDS011;11432;46.924;7.114;2022-08-03T14:04:51;2.03;;;1.35;;
22531;SDS011;11432;46.924;7.114;2022-08-03T14:07:17;2.33;;;1.45;;
22531;SDS011;11432;46.924;7.114;2022-08-03T14:09:43;7.15;;;1.42;;
22531;SDS011;11432;46.924;7.114;2022-08-03T14:12:09;3.90;;;1.90;;
22531;SDS011;11432;46.924;7.114;2022-08-03T14:14:35;3.55;;;1.60;;
22531;SDS011;11432;46.924;7.114;2022-08-03T14:17:00;2.75;;;1.50;;
22531;SDS011;11432;46.924;7.114;2022-08-03T14:19:26;3.78;;;1.50;;
22531;SDS011;11432;46.924;7.114;2022-08-03T14:21:52;1.65;;;0.95;;
22531;SDS011;11432;46.924;7.114;2022-08-03T14:24:17;2.25;;;1.35;;
22531;SDS011;11432;46.924;7.114;2022-08-03T14:26:43;2.13;;;1.50;;
22531;SDS011;11432;46.924;7.114;2022-08-03T14:29:09;2.70;;;1.30;;
22531;SDS011;11432;46.924;7.114;2022-08-03T14:31:35;2.40;;;1.40;;
22531;SDS011;11432;46.924;7.114;2022-08-03T14:34:01;2.25;;;1.40;;
22531;SDS011;11432;46.924;7.114;2022-08-03T14:36:27;1.80;;;1.42;;
22531;SDS011;11432;46.924;7.114;2022-08-03T14:38:53;2.53;;;1.30;;
22531;SDS011;11432;46.924;7.114;2022-08-03T14:41:18;2.40;;;1.20;;
22531;SDS011;11432;46.924;7.114;2022-08-03T14:43:44;2.35;;;1.20;;
22531;SDS011;11432;46.924;7.114;2022-08-03T14:46:10;1.50;;;1.30;;
22531;SDS011;11432;46.924;7.114;2022-08-03T14:48:35;2.00;;;1.50;;
22531;SDS011;11432;46.924;7.114;2022-08-03T14:51:01;4.50;;;1.58;;
22531;SDS011;11432;46.924;7.114;2022-08-03T14:53:27;2.03;;;1.30;;
22531;SDS011;11432;46.924;7.114;2022-08-03T14:55:53;2.53;;;1.30;;
22531;SDS011;11432;46.924;7.114;2022-08-03T14:58:19;1.95;;;1.40;;
22531;SDS011;11432;46.924;7.114;2022-08-03T15:00:45;3.05;;;1.08;;
22531;SDS011;11432;46.924;7.114;2022-08-03T15:03:11;2.08;;;1.48;;
22531;SDS011;11432;46.924;7.114;2022-08-03T15:05:37;2.00;;;1.30;;
22531;SDS011;11432;46.924;7.114;2022-08-03T15:08:02;1.77;;;1.00;;
22531;SDS011;11432;46.924;7.114;2022-08-03T15:10:28;1.75;;;1.10;;
22531;SDS011;11432;46.924;7.114;2022-08-03T15:12:54;1.88;;;1.10;;
22531;SDS011;11432;46.924;7.114;2022-08-03T15:15:19;3.28;;;1.35;;
22531;SDS011;11432;46.924;7.114;2022-08-03T15:17:45;3.22;;;1.38;;
22531;SDS011;11432;46.924;7.114;2022-08-03T15:20:11;5.68;;;1.08;;
22531;SDS011;11432;46.924;7.114;2022-08-03T15:22:39;2.85;;;1.17;;
22531;SDS011;11432;46.924;7.114;2022-08-03T15:25:05;1.63;;;1.25;;
22531;SDS011;11432;46.924;7.114;2022-08-03T15:27:31;1.35;;;1.15;;
22531;SDS011;11432;46.924;7.114;2022-08-03T15:29:57;1.63;;;1.23;;
22531;SDS011;11432;46.924;7.114;2022-08-03T15:32:22;2.03;;;1.25;;
22531;SDS011;11432;46.924;7.114;2022-08-03T15:34:48;2.90;;;1.48;;
22531;SDS011;11432;46.924;7.114;2022-08-03T15:37:15;3.40;;;1.50;;
22531;SDS011;11432;46.924;7.114;2022-08-03T15:39:40;2.00;;;1.35;;
22531;SDS011;11432;46.924;7.114;2022-08-03T15:42:06;2.40;;;1.45;;